sensor_id;sensor_type;location;lat;lon;timestamp;P1;durP1;ratioP1;P2;durP2;ratioP2
18425;SDS011;9340;48.756;9.226;2022-12-18T00:00:44;39.80;;;24.87;;
18425;SDS011;9340;48.756;9.226;2022-12-18T00:03:11;41.17;;;23.57;;
18425;SDS011;9340;48.756;9.226;2022-12-18T00:05:45;42.07;;;23.53;;
18425;SDS011;9340;48.756;9.226;2022-12-18T00:08:12;39.77;;;24.03;;
18425;SDS011;9340;48.756;9.226;2022-12-18T00:10:39;46.57;;;25.93;;
18425;SDS011;9340;48.756;9.226;2022-12-18T00:13:06;42.03;;;25.60;;
18425;SDS011;9340;48.756;9.226;2022-12-18T00:15:35;35.03;;;23.43;;
18425;SDS011;9340;48.756;9.226;2022-12-18T00:18:03;38.20;;;23.03;;
18425;SDS011;9340;48.756;9.226;2022-12-18T00:20:30;39.37;;;23.53;;
18425;SDS011;9340;48.756;9.226;2022-12-18T00:22:57;44.60;;;24.77;;
18425;SDS011;9340;48.756;9.226;2022-12-18T00:25:24;41.60;;;25.23;;
18425;SDS011;9340;48.756;9.226;2022-12-18T00:27:51;40.40;;;23.87;;
18425;SDS011;9340;48.756;9.226;2022-12-18T00:30:18;43.10;;;25.43;;
18425;SDS011;9340;48.756;9.226;2022-12-18T00:32:47;42.97;;;24.63;;
18425;SDS011;9340;48.756;9.226;2022-12-18T00:35:14;43.77;;;25.23;;
18425;SDS011;9340;48.756;9.226;2022-12-18T00:37:41;43.33;;;24.33;;
18425;SDS011;9340;48.756;9.226;2022-12-18T00:40:08;41.77;;;25.63;;
18425;SDS011;9340;48.756;9.226;2022-12-18T00:42:36;43.80;;;25.47;;
18425;SDS011;9340;48.756;9.226;2022-12-18T00:45:20;41.27;;;25.03;;
18425;SDS011;9340;48.756;9.226;2022-12-18T00:47:49;38.93;;;24.03;;
18425;SDS011;9340;48.756;9.226;2022-12-18T00:50:16;41.67;;;23.43;;
18425;SDS011;9340;48.756;9.226;2022-12-18T00:52:43;41.13;;;22.67;;
18425;SDS011;9340;48.756;9.226;2022-12-18T00:55:10;39.03;;;23.80;;
18425;SDS011;9340;48.756;9.226;2022-12-18T00:57:38;39.30;;;23.87;;
18425;SDS011;9340;48.756;9.226;2022-12-18T01:00:05;39.07;;;21.70;;
18425;SDS011;9340;48.756;9.226;2022-12-18T01:02:34;38.73;;;22.23;;
18425;SDS011;9340;48.756;9.226;2022-12-18T01:05:02;40.63;;;23.07;;
18425;SDS011;9340;48.756;9.226;2022-12-18T01:07:29;42.27;;;24.23;;
18425;SDS011;9340;48.756;9.226;2022-12-18T01:09:56;39.50;;;24.93;;
18425;SDS011;9340;48.756;9.226;2022-12-18T01:12:23;41.33;;;23.70;;
18425;SDS011;9340;48.756;9.226;2022-12-18T01:14:50;39.30;;;23.37;;
18425;SDS011;9340;48.756;9.226;2022-12-18T01:17:17;40.13;;;24.07;;
18425;SDS011;9340;48.756;9.226;2022-12-18T01:19:44;38.93;;;24.03;;
18425;SDS011;9340;48.756;9.226;2022-12-18T01:22:12;44.67;;;25.73;;
18425;SDS011;9340;48.756;9.226;2022-12-18T01:24:39;41.67;;;24.10;;
18425;SDS011;9340;48.756;9.226;2022-12-18T01:27:06;37.90;;;24.03;;
18425;SDS011;9340;48.756;9.226;2022-12-18T01:29:33;40.60;;;24.40;;
18425;SDS011;9340;48.756;9.226;2022-12-18T01:32:00;42.93;;;23.07;;
18425;SDS011;9340;48.756;9.226;2022-12-18T01:34:27;43.47;;;23.30;;
18425;SDS011;9340;48.756;9.226;2022-12-18T01:36:53;37.67;;;22.47;;
18425;SDS011;9340;48.756;9.226;2022-12-18T01:39:22;37.33;;;22.17;;
18425;SDS011;9340;48.756;9.226;2022-12-18T01:41:49;39.80;;;23.27;;
18425;SDS011;9340;48.756;9.226;2022-12-18T01:47:22;41.70;;;22.60;;
18425;SDS011;9340;48.756;9.226;2022-12-18T01:49:52;40.30;;;22.87;;
18425;SDS011;9340;48.756;9.226;2022-12-18T01:52:20;40.97;;;23.77;;
18425;SDS011;9340;48.756;9.226;2022-12-18T01:54:49;38.07;;;21.77;;
18425;SDS011;9340;48.756;9.226;2022-12-18T01:57:18;33.87;;;21.70;;
18425;SDS011;9340;48.756;9.226;2022-12-18T01:59:45;37.50;;;22.17;;
18425;SDS011;9340;48.756;9.226;2022-12-18T02:02:17;44.30;;;23.57;;
18425;SDS011;9340;48.756;9.226;2022-12-18T02:04:44;39.43;;;22.50;;
18425;SDS011;9340;48.756;9.226;2022-12-18T02:07:12;36.30;;;22.80;;
18425;SDS011;9340;48.756;9.226;2022-12-18T02:09:47;40.13;;;23.57;;
18425;SDS011;9340;48.756;9.226;2022-12-18T02:12:18;43.57;;;24.67;;
18425;SDS011;9340;48.756;9.226;2022-12-18T02:14:49;42.30;;;22.43;;
18425;SDS011;9340;48.756;9.226;2022-12-18T02:17:21;38.90;;;22.30;;
18425;SDS011;9340;48.756;9.226;2022-12-18T02:19:57;38.97;;;21.97;;
18425;SDS011;9340;48.756;9.226;2022-12-18T02:22:35;34.63;;;20.90;;
18425;SDS011;9340;48.756;9.226;2022-12-18T02:25:16;37.60;;;21.17;;
18425;SDS011;9340;48.756;9.226;2022-12-18T02:27:55;35.80;;;20.40;;
18425;SDS011;9340;48.756;9.226;2022-12-18T02:30:24;37.43;;;21.00;;
18425;SDS011;9340;48.756;9.226;2022-12-18T02:32:52;37.93;;;22.03;;
18425;SDS011;9340;48.756;9.226;2022-12-18T02:35:23;36.00;;;20.50;;
18425;SDS011;9340;48.756;9.226;2022-12-18T02:37:52;35.33;;;21.50;;
18425;SDS011;9340;48.756;9.226;2022-12-18T02:40:20;41.83;;;23.90;;
18425;SDS011;9340;48.756;9.226;2022-12-18T02:42:49;33.90;;;20.90;;
18425;SDS011;9340;48.756;9.226;2022-12-18T02:45:18;36.43;;;21.57;;
18425;SDS011;9340;48.756;9.226;2022-12-18T02:47:45;34.10;;;20.77;;
18425;SDS011;9340;48.756;9.226;2022-12-18T02:50:16;36.23;;;20.90;;
18425;SDS011;9340;48.756;9.226;2022-12-18T02:52:51;38.33;;;21.03;;
18425;SDS011;9340;48.756;9.226;2022-12-18T02:55:29;39.13;;;23.00;;
18425;SDS011;9340;48.756;9.226;2022-12-18T02:58:03;36.80;;;22.07;;
18425;SDS011;9340;48.756;9.226;2022-12-18T03:00:36;37.23;;;22.97;;
18425;SDS011;9340;48.756;9.226;2022-12-18T03:03:07;37.90;;;21.87;;
18425;SDS011;9340;48.756;9.226;2022-12-18T03:05:38;37.30;;;23.27;;
18425;SDS011;9340;48.756;9.226;2022-12-18T03:08:10;43.87;;;23.03;;
18425;SDS011;9340;48.756;9.226;2022-12-18T03:10:40;36.07;;;22.63;;
18425;SDS011;9340;48.756;9.226;2022-12-18T03:13:12;34.67;;;20.23;;
18425;SDS011;9340;48.756;9.226;2022-12-18T03:15:44;42.20;;;22.10;;
18425;SDS011;9340;48.756;9.226;2022-12-18T03:18:14;40.83;;;22.13;;
18425;SDS011;9340;48.756;9.226;2022-12-18T03:20:45;37.17;;;21.03;;
18425;SDS011;9340;48.756;9.226;2022-12-18T03:23:16;37.50;;;22.00;;
18425;SDS011;9340;48.756;9.226;2022-12-18T03:25:47;37.97;;;23.17;;
18425;SDS011;9340;48.756;9.226;2022-12-18T03:28:19;39.50;;;22.40;;
18425;SDS011;9340;48.756;9.226;2022-12-18T03:30:49;33.83;;;20.80;;
18425;SDS011;9340;48.756;9.226;2022-12-18T03:33:21;33.27;;;20.63;;
18425;SDS011;9340;48.756;9.226;2022-12-18T03:35:53;35.50;;;20.53;;
18425;SDS011;9340;48.756;9.226;2022-12-18T03:38:21;36.73;;;21.30;;
18425;SDS011;9340;48.756;9.226;2022-12-18T03:40:51;40.80;;;21.33;;
18425;SDS011;9340;48.756;9.226;2022-12-18T03:43:26;31.13;;;20.10;;
18425;SDS011;9340;48.756;9.226;2022-12-18T03:46:06;36.40;;;21.03;;
18425;SDS011;9340;48.756;9.226;2022-12-18T03:48:38;39.67;;;21.83;;
18425;SDS011;9340;48.756;9.226;2022-12-18T03:51:11;37.47;;;22.27;;
18425;SDS011;9340;48.756;9.226;2022-12-18T03:53:45;38.20;;;22.00;;
18425;SDS011;9340;48.756;9.226;2022-12-18T03:56:18;36.67;;;21.97;;
18425;SDS011;9340;48.756;9.226;2022-12-18T03:58:47;37.60;;;20.80;;
18425;SDS011;9340;48.756;9.226;2022-12-18T04:01:20;38.27;;;21.67;;
18425;SDS011;9340;48.756;9.226;2022-12-18T04:03:50;34.13;;;20.77;;
18425;SDS011;9340;48.756;9.226;2022-12-18T04:06:17;32.40;;;20.90;;
18425;SDS011;9340;48.756;9.226;2022-12-18T04:08:45;34.77;;;20.67;;
18425;SDS011;9340;48.756;9.226;2022-12-18T04:11:12;36.30;;;20.87;;
18425;SDS011;9340;48.756;9.226;2022-12-18T04:13:39;35.07;;;19.43;;
18425;SDS011;9340;48.756;9.226;2022-12-18T04:16:09;35.93;;;20.50;;
18425;SDS011;9340;48.756;9.226;2022-12-18T04:18:37;35.37;;;20.93;;
18425;SDS011;9340;48.756;9.226;2022-12-18T04:21:04;34.87;;;21.23;;
18425;SDS011;9340;48.756;9.226;2022-12-18T04:23:31;36.77;;;20.73;;
18425;SDS011;9340;48.756;9.226;2022-12-18T04:25:58;31.87;;;19.17;;
18425;SDS011;9340;48.756;9.226;2022-12-18T04:28:25;34.27;;;20.50;;
18425;SDS011;9340;48.756;9.226;2022-12-18T04:30:52;39.37;;;21.60;;
18425;SDS011;9340;48.756;9.226;2022-12-18T04:33:19;34.37;;;18.77;;
18425;SDS011;9340;48.756;9.226;2022-12-18T04:35:47;31.77;;;18.63;;
18425;SDS011;9340;48.756;9.226;2022-12-18T04:38:14;32.77;;;21.77;;
18425;SDS011;9340;48.756;9.226;2022-12-18T04:40:41;32.37;;;19.17;;
18425;SDS011;9340;48.756;9.226;2022-12-18T04:43:09;29.73;;;18.57;;
18425;SDS011;9340;48.756;9.226;2022-12-18T04:45:36;33.13;;;18.73;;
18425;SDS011;9340;48.756;9.226;2022-12-18T04:48:03;35.00;;;20.33;;
18425;SDS011;9340;48.756;9.226;2022-12-18T04:50:30;33.03;;;19.73;;
18425;SDS011;9340;48.756;9.226;2022-12-18T04:52:58;31.77;;;20.47;;
18425;SDS011;9340;48.756;9.226;2022-12-18T04:55:25;36.30;;;20.47;;
18425;SDS011;9340;48.756;9.226;2022-12-18T04:57:53;36.07;;;19.27;;
18425;SDS011;9340;48.756;9.226;2022-12-18T05:00:20;31.70;;;19.10;;
18425;SDS011;9340;48.756;9.226;2022-12-18T05:02:47;31.77;;;19.10;;
18425;SDS011;9340;48.756;9.226;2022-12-18T05:05:14;32.67;;;19.33;;
18425;SDS011;9340;48.756;9.226;2022-12-18T05:07:41;36.23;;;18.63;;
18425;SDS011;9340;48.756;9.226;2022-12-18T05:10:09;35.80;;;20.20;;
18425;SDS011;9340;48.756;9.226;2022-12-18T05:12:36;35.87;;;20.73;;
18425;SDS011;9340;48.756;9.226;2022-12-18T05:15:23;37.93;;;20.83;;
18425;SDS011;9340;48.756;9.226;2022-12-18T05:17:50;31.67;;;18.90;;
18425;SDS011;9340;48.756;9.226;2022-12-18T05:20:17;33.23;;;19.90;;
18425;SDS011;9340;48.756;9.226;2022-12-18T05:22:44;33.07;;;19.60;;
18425;SDS011;9340;48.756;9.226;2022-12-18T05:25:12;36.73;;;18.93;;
18425;SDS011;9340;48.756;9.226;2022-12-18T05:27:39;33.37;;;19.63;;
18425;SDS011;9340;48.756;9.226;2022-12-18T05:30:06;36.07;;;19.60;;
18425;SDS011;9340;48.756;9.226;2022-12-18T05:32:34;35.87;;;19.80;;
18425;SDS011;9340;48.756;9.226;2022-12-18T05:35:01;31.87;;;19.77;;
18425;SDS011;9340;48.756;9.226;2022-12-18T05:37:28;37.07;;;20.37;;
18425;SDS011;9340;48.756;9.226;2022-12-18T05:39:55;34.17;;;19.83;;
18425;SDS011;9340;48.756;9.226;2022-12-18T05:42:23;30.97;;;17.57;;
18425;SDS011;9340;48.756;9.226;2022-12-18T05:44:50;33.43;;;20.57;;
18425;SDS011;9340;48.756;9.226;2022-12-18T05:47:17;31.50;;;18.97;;
18425;SDS011;9340;48.756;9.226;2022-12-18T05:49:44;33.10;;;20.33;;
18425;SDS011;9340;48.756;9.226;2022-12-18T05:52:10;31.07;;;18.63;;
18425;SDS011;9340;48.756;9.226;2022-12-18T05:54:37;33.23;;;18.87;;
18425;SDS011;9340;48.756;9.226;2022-12-18T05:57:04;30.47;;;18.93;;
18425;SDS011;9340;48.756;9.226;2022-12-18T05:59:33;35.80;;;19.43;;
18425;SDS011;9340;48.756;9.226;2022-12-18T06:01:59;33.70;;;19.37;;
18425;SDS011;9340;48.756;9.226;2022-12-18T06:04:26;32.27;;;19.10;;
18425;SDS011;9340;48.756;9.226;2022-12-18T06:06:54;39.47;;;20.23;;
18425;SDS011;9340;48.756;9.226;2022-12-18T06:09:21;32.60;;;18.23;;
18425;SDS011;9340;48.756;9.226;2022-12-18T06:11:49;38.80;;;19.33;;
18425;SDS011;9340;48.756;9.226;2022-12-18T06:14:18;36.03;;;20.43;;
18425;SDS011;9340;48.756;9.226;2022-12-18T06:16:46;36.13;;;19.97;;
18425;SDS011;9340;48.756;9.226;2022-12-18T06:19:14;35.33;;;20.53;;
18425;SDS011;9340;48.756;9.226;2022-12-18T06:21:42;33.03;;;19.23;;
18425;SDS011;9340;48.756;9.226;2022-12-18T06:24:09;35.27;;;18.63;;
18425;SDS011;9340;48.756;9.226;2022-12-18T06:26:36;30.77;;;18.33;;
18425;SDS011;9340;48.756;9.226;2022-12-18T06:29:04;30.57;;;19.03;;
18425;SDS011;9340;48.756;9.226;2022-12-18T06:31:31;32.10;;;17.80;;
18425;SDS011;9340;48.756;9.226;2022-12-18T06:34:01;32.50;;;19.57;;
18425;SDS011;9340;48.756;9.226;2022-12-18T06:36:28;31.07;;;17.73;;
18425;SDS011;9340;48.756;9.226;2022-12-18T06:38:55;30.87;;;18.13;;
18425;SDS011;9340;48.756;9.226;2022-12-18T06:41:24;30.07;;;17.47;;
18425;SDS011;9340;48.756;9.226;2022-12-18T06:43:51;33.93;;;20.33;;
18425;SDS011;9340;48.756;9.226;2022-12-18T06:46:18;31.87;;;18.80;;
18425;SDS011;9340;48.756;9.226;2022-12-18T06:48:49;30.17;;;18.07;;
18425;SDS011;9340;48.756;9.226;2022-12-18T06:51:19;34.47;;;20.43;;
18425;SDS011;9340;48.756;9.226;2022-12-18T06:53:46;33.03;;;17.70;;
18425;SDS011;9340;48.756;9.226;2022-12-18T06:56:13;25.53;;;17.73;;
18425;SDS011;9340;48.756;9.226;2022-12-18T06:58:40;29.93;;;17.67;;
18425;SDS011;9340;48.756;9.226;2022-12-18T07:01:08;32.23;;;18.67;;
18425;SDS011;9340;48.756;9.226;2022-12-18T07:03:37;32.50;;;18.87;;
18425;SDS011;9340;48.756;9.226;2022-12-18T07:06:04;35.07;;;18.63;;
18425;SDS011;9340;48.756;9.226;2022-12-18T07:08:33;32.50;;;17.80;;
18425;SDS011;9340;48.756;9.226;2022-12-18T07:11:02;33.80;;;18.83;;
18425;SDS011;9340;48.756;9.226;2022-12-18T07:13:29;31.60;;;18.00;;
18425;SDS011;9340;48.756;9.226;2022-12-18T07:16:03;30.10;;;17.60;;
18425;SDS011;9340;48.756;9.226;2022-12-18T07:18:31;30.47;;;18.37;;
18425;SDS011;9340;48.756;9.226;2022-12-18T07:20:58;31.43;;;18.67;;
18425;SDS011;9340;48.756;9.226;2022-12-18T07:23:29;56.80;;;30.90;;
18425;SDS011;9340;48.756;9.226;2022-12-18T07:26:01;61.83;;;36.20;;
18425;SDS011;9340;48.756;9.226;2022-12-18T07:28:29;61.50;;;31.33;;
18425;SDS011;9340;48.756;9.226;2022-12-18T07:30:57;44.70;;;25.17;;
18425;SDS011;9340;48.756;9.226;2022-12-18T07:33:24;40.30;;;22.30;;
18425;SDS011;9340;48.756;9.226;2022-12-18T07:35:52;33.53;;;20.77;;
18425;SDS011;9340;48.756;9.226;2022-12-18T07:38:21;36.03;;;22.00;;
18425;SDS011;9340;48.756;9.226;2022-12-18T07:40:48;37.40;;;22.47;;
18425;SDS011;9340;48.756;9.226;2022-12-18T07:43:16;36.57;;;20.30;;
18425;SDS011;9340;48.756;9.226;2022-12-18T07:45:44;39.30;;;20.83;;
18425;SDS011;9340;48.756;9.226;2022-12-18T07:48:11;35.20;;;21.50;;
18425;SDS011;9340;48.756;9.226;2022-12-18T07:50:38;29.67;;;19.37;;
18425;SDS011;9340;48.756;9.226;2022-12-18T07:53:05;37.77;;;22.70;;
18425;SDS011;9340;48.756;9.226;2022-12-18T07:55:31;41.93;;;23.67;;
18425;SDS011;9340;48.756;9.226;2022-12-18T07:58:00;38.97;;;22.80;;
18425;SDS011;9340;48.756;9.226;2022-12-18T08:00:30;30.87;;;19.53;;
18425;SDS011;9340;48.756;9.226;2022-12-18T08:02:57;36.73;;;21.07;;
18425;SDS011;9340;48.756;9.226;2022-12-18T08:05:24;36.57;;;20.60;;
18425;SDS011;9340;48.756;9.226;2022-12-18T08:07:51;34.97;;;21.07;;
18425;SDS011;9340;48.756;9.226;2022-12-18T08:10:18;32.77;;;19.23;;
18425;SDS011;9340;48.756;9.226;2022-12-18T08:12:45;38.27;;;22.07;;
18425;SDS011;9340;48.756;9.226;2022-12-18T08:15:14;34.10;;;21.10;;
18425;SDS011;9340;48.756;9.226;2022-12-18T08:17:43;37.60;;;20.30;;
18425;SDS011;9340;48.756;9.226;2022-12-18T08:20:10;34.27;;;20.13;;
18425;SDS011;9340;48.756;9.226;2022-12-18T08:22:40;34.83;;;20.57;;
18425;SDS011;9340;48.756;9.226;2022-12-18T08:25:19;36.37;;;21.30;;
18425;SDS011;9340;48.756;9.226;2022-12-18T08:27:46;37.77;;;22.47;;
18425;SDS011;9340;48.756;9.226;2022-12-18T08:30:14;35.53;;;20.87;;
18425;SDS011;9340;48.756;9.226;2022-12-18T08:32:44;38.87;;;20.57;;
18425;SDS011;9340;48.756;9.226;2022-12-18T08:35:11;34.50;;;20.33;;
18425;SDS011;9340;48.756;9.226;2022-12-18T08:37:38;33.80;;;21.03;;
18425;SDS011;9340;48.756;9.226;2022-12-18T08:40:06;34.13;;;20.37;;
18425;SDS011;9340;48.756;9.226;2022-12-18T08:42:33;33.77;;;20.80;;
18425;SDS011;9340;48.756;9.226;2022-12-18T08:45:18;38.53;;;19.07;;
18425;SDS011;9340;48.756;9.226;2022-12-18T08:47:46;33.80;;;20.00;;
18425;SDS011;9340;48.756;9.226;2022-12-18T08:50:20;31.67;;;19.17;;
18425;SDS011;9340;48.756;9.226;2022-12-18T08:53:03;34.47;;;20.83;;
18425;SDS011;9340;48.756;9.226;2022-12-18T08:58:31;35.03;;;20.83;;
18425;SDS011;9340;48.756;9.226;2022-12-18T09:01:03;32.70;;;21.03;;
18425;SDS011;9340;48.756;9.226;2022-12-18T09:03:32;37.27;;;23.00;;
18425;SDS011;9340;48.756;9.226;2022-12-18T09:06:05;41.37;;;25.83;;
18425;SDS011;9340;48.756;9.226;2022-12-18T09:08:32;43.60;;;27.53;;
18425;SDS011;9340;48.756;9.226;2022-12-18T09:11:01;40.97;;;25.40;;
18425;SDS011;9340;48.756;9.226;2022-12-18T09:13:28;38.20;;;24.47;;
18425;SDS011;9340;48.756;9.226;2022-12-18T09:15:55;40.03;;;24.63;;
18425;SDS011;9340;48.756;9.226;2022-12-18T09:18:23;37.33;;;24.50;;
18425;SDS011;9340;48.756;9.226;2022-12-18T09:20:52;36.90;;;25.10;;
18425;SDS011;9340;48.756;9.226;2022-12-18T09:23:19;38.40;;;22.93;;
18425;SDS011;9340;48.756;9.226;2022-12-18T09:25:46;40.30;;;24.20;;
18425;SDS011;9340;48.756;9.226;2022-12-18T09:28:15;37.03;;;24.67;;
18425;SDS011;9340;48.756;9.226;2022-12-18T09:30:44;43.07;;;27.17;;
18425;SDS011;9340;48.756;9.226;2022-12-18T09:33:13;34.90;;;24.13;;
18425;SDS011;9340;48.756;9.226;2022-12-18T09:35:41;43.83;;;26.73;;
18425;SDS011;9340;48.756;9.226;2022-12-18T09:38:11;44.97;;;25.50;;
18425;SDS011;9340;48.756;9.226;2022-12-18T09:40:40;38.90;;;24.43;;
18425;SDS011;9340;48.756;9.226;2022-12-18T09:43:12;40.63;;;25.00;;
18425;SDS011;9340;48.756;9.226;2022-12-18T09:45:43;36.17;;;23.57;;
18425;SDS011;9340;48.756;9.226;2022-12-18T09:48:15;37.57;;;24.03;;
18425;SDS011;9340;48.756;9.226;2022-12-18T09:50:46;37.10;;;23.03;;
18425;SDS011;9340;48.756;9.226;2022-12-18T09:53:17;38.20;;;24.83;;
18425;SDS011;9340;48.756;9.226;2022-12-18T09:55:46;40.70;;;25.70;;
18425;SDS011;9340;48.756;9.226;2022-12-18T09:58:15;43.33;;;27.53;;
18425;SDS011;9340;48.756;9.226;2022-12-18T10:00:46;40.53;;;25.10;;
18425;SDS011;9340;48.756;9.226;2022-12-18T10:03:14;42.10;;;26.00;;
18425;SDS011;9340;48.756;9.226;2022-12-18T10:05:43;39.40;;;24.33;;
18425;SDS011;9340;48.756;9.226;2022-12-18T10:08:21;39.57;;;24.00;;
18425;SDS011;9340;48.756;9.226;2022-12-18T10:10:56;47.43;;;27.37;;
18425;SDS011;9340;48.756;9.226;2022-12-18T10:13:33;40.80;;;26.60;;
18425;SDS011;9340;48.756;9.226;2022-12-18T10:16:35;41.50;;;25.00;;
18425;SDS011;9340;48.756;9.226;2022-12-18T10:19:43;35.53;;;22.50;;
18425;SDS011;9340;48.756;9.226;2022-12-18T10:22:19;33.80;;;21.07;;
18425;SDS011;9340;48.756;9.226;2022-12-18T10:24:55;33.70;;;19.87;;
18425;SDS011;9340;48.756;9.226;2022-12-18T10:27:28;33.33;;;21.73;;
18425;SDS011;9340;48.756;9.226;2022-12-18T10:29:55;31.07;;;19.53;;
18425;SDS011;9340;48.756;9.226;2022-12-18T10:32:25;34.07;;;21.73;;
18425;SDS011;9340;48.756;9.226;2022-12-18T10:34:54;36.10;;;20.83;;
18425;SDS011;9340;48.756;9.226;2022-12-18T10:37:23;36.23;;;20.07;;
18425;SDS011;9340;48.756;9.226;2022-12-18T10:40:08;30.17;;;18.83;;
18425;SDS011;9340;48.756;9.226;2022-12-18T10:42:37;33.23;;;20.07;;
18425;SDS011;9340;48.756;9.226;2022-12-18T10:45:09;32.40;;;20.33;;
18425;SDS011;9340;48.756;9.226;2022-12-18T10:47:41;35.10;;;20.50;;
18425;SDS011;9340;48.756;9.226;2022-12-18T10:50:17;34.20;;;20.47;;
18425;SDS011;9340;48.756;9.226;2022-12-18T10:52:53;32.37;;;19.13;;
18425;SDS011;9340;48.756;9.226;2022-12-18T10:55:22;30.77;;;20.03;;
18425;SDS011;9340;48.756;9.226;2022-12-18T10:57:53;33.57;;;20.30;;
18425;SDS011;9340;48.756;9.226;2022-12-18T11:00:24;31.47;;;19.40;;
18425;SDS011;9340;48.756;9.226;2022-12-18T11:02:53;33.20;;;20.63;;
18425;SDS011;9340;48.756;9.226;2022-12-18T11:05:24;34.10;;;20.00;;
18425;SDS011;9340;48.756;9.226;2022-12-18T11:07:53;29.40;;;18.27;;
18425;SDS011;9340;48.756;9.226;2022-12-18T11:10:23;33.63;;;20.70;;
18425;SDS011;9340;48.756;9.226;2022-12-18T11:12:54;29.80;;;19.50;;
18425;SDS011;9340;48.756;9.226;2022-12-18T11:15:21;33.20;;;21.53;;
18425;SDS011;9340;48.756;9.226;2022-12-18T11:17:52;31.87;;;22.00;;
18425;SDS011;9340;48.756;9.226;2022-12-18T11:20:20;33.20;;;20.17;;
18425;SDS011;9340;48.756;9.226;2022-12-18T11:22:56;34.43;;;20.83;;
18425;SDS011;9340;48.756;9.226;2022-12-18T11:25:26;33.03;;;19.40;;
18425;SDS011;9340;48.756;9.226;2022-12-18T11:27:54;32.67;;;18.80;;
18425;SDS011;9340;48.756;9.226;2022-12-18T11:30:23;33.57;;;20.30;;
18425;SDS011;9340;48.756;9.226;2022-12-18T11:32:53;30.30;;;19.57;;
18425;SDS011;9340;48.756;9.226;2022-12-18T11:35:24;30.70;;;20.10;;
18425;SDS011;9340;48.756;9.226;2022-12-18T11:38:04;38.57;;;23.53;;
18425;SDS011;9340;48.756;9.226;2022-12-18T11:40:40;33.37;;;20.83;;
18425;SDS011;9340;48.756;9.226;2022-12-18T11:43:10;33.13;;;20.67;;
18425;SDS011;9340;48.756;9.226;2022-12-18T11:45:43;32.70;;;21.07;;
18425;SDS011;9340;48.756;9.226;2022-12-18T11:48:16;35.50;;;20.60;;
18425;SDS011;9340;48.756;9.226;2022-12-18T11:50:49;30.90;;;19.03;;
18425;SDS011;9340;48.756;9.226;2022-12-18T11:53:17;34.37;;;20.20;;
18425;SDS011;9340;48.756;9.226;2022-12-18T11:58:43;29.50;;;19.40;;
18425;SDS011;9340;48.756;9.226;2022-12-18T12:01:16;28.83;;;19.23;;
18425;SDS011;9340;48.756;9.226;2022-12-18T12:06:49;28.20;;;19.27;;
18425;SDS011;9340;48.756;9.226;2022-12-18T12:09:27;33.67;;;20.23;;
18425;SDS011;9340;48.756;9.226;2022-12-18T12:12:06;30.60;;;18.40;;
18425;SDS011;9340;48.756;9.226;2022-12-18T12:14:46;36.17;;;19.43;;
18425;SDS011;9340;48.756;9.226;2022-12-18T12:17:26;31.50;;;19.93;;
18425;SDS011;9340;48.756;9.226;2022-12-18T12:20:00;29.97;;;18.43;;
18425;SDS011;9340;48.756;9.226;2022-12-18T12:22:35;28.47;;;18.77;;
18425;SDS011;9340;48.756;9.226;2022-12-18T12:25:15;33.33;;;22.03;;
18425;SDS011;9340;48.756;9.226;2022-12-18T12:27:54;34.13;;;22.37;;
18425;SDS011;9340;48.756;9.226;2022-12-18T12:30:32;30.23;;;20.73;;
18425;SDS011;9340;48.756;9.226;2022-12-18T12:33:11;32.10;;;20.60;;
18425;SDS011;9340;48.756;9.226;2022-12-18T12:35:47;31.23;;;19.50;;
18425;SDS011;9340;48.756;9.226;2022-12-18T12:38:22;33.17;;;20.07;;
18425;SDS011;9340;48.756;9.226;2022-12-18T12:40:54;37.20;;;21.23;;
18425;SDS011;9340;48.756;9.226;2022-12-18T12:43:33;37.33;;;21.77;;
18425;SDS011;9340;48.756;9.226;2022-12-18T12:46:04;30.83;;;18.97;;
18425;SDS011;9340;48.756;9.226;2022-12-18T12:48:37;30.43;;;20.30;;
18425;SDS011;9340;48.756;9.226;2022-12-18T12:51:09;37.57;;;21.73;;
18425;SDS011;9340;48.756;9.226;2022-12-18T12:53:40;30.93;;;20.73;;
18425;SDS011;9340;48.756;9.226;2022-12-18T12:56:08;30.93;;;19.97;;
18425;SDS011;9340;48.756;9.226;2022-12-18T12:58:43;44.37;;;23.33;;
18425;SDS011;9340;48.756;9.226;2022-12-18T13:01:17;37.60;;;21.47;;
18425;SDS011;9340;48.756;9.226;2022-12-18T13:03:56;33.97;;;21.87;;
18425;SDS011;9340;48.756;9.226;2022-12-18T13:06:33;34.30;;;21.60;;
18425;SDS011;9340;48.756;9.226;2022-12-18T13:09:06;37.00;;;21.70;;
18425;SDS011;9340;48.756;9.226;2022-12-18T13:11:37;30.33;;;21.03;;
18425;SDS011;9340;48.756;9.226;2022-12-18T13:14:26;33.20;;;20.87;;
18425;SDS011;9340;48.756;9.226;2022-12-18T13:19:41;41.57;;;26.30;;
18425;SDS011;9340;48.756;9.226;2022-12-18T13:22:20;32.90;;;21.53;;
18425;SDS011;9340;48.756;9.226;2022-12-18T13:24:48;36.67;;;22.40;;
18425;SDS011;9340;48.756;9.226;2022-12-18T13:36:26;48.47;;;29.50;;
18425;SDS011;9340;48.756;9.226;2022-12-18T13:41:52;32.97;;;21.57;;
18425;SDS011;9340;48.756;9.226;2022-12-18T13:44:25;35.13;;;21.50;;
18425;SDS011;9340;48.756;9.226;2022-12-18T13:46:59;35.90;;;23.00;;
18425;SDS011;9340;48.756;9.226;2022-12-18T13:49:28;38.27;;;23.73;;
18425;SDS011;9340;48.756;9.226;2022-12-18T13:52:02;38.37;;;25.50;;
18425;SDS011;9340;48.756;9.226;2022-12-18T13:54:40;36.33;;;23.80;;
18425;SDS011;9340;48.756;9.226;2022-12-18T13:57:25;37.87;;;23.27;;
18425;SDS011;9340;48.756;9.226;2022-12-18T13:59:54;37.33;;;24.93;;
18425;SDS011;9340;48.756;9.226;2022-12-18T14:02:24;38.50;;;24.07;;
18425;SDS011;9340;48.756;9.226;2022-12-18T14:04:53;36.07;;;23.37;;
18425;SDS011;9340;48.756;9.226;2022-12-18T14:07:21;40.20;;;27.00;;
18425;SDS011;9340;48.756;9.226;2022-12-18T14:09:50;34.90;;;22.50;;
18425;SDS011;9340;48.756;9.226;2022-12-18T14:12:22;32.47;;;21.97;;
18425;SDS011;9340;48.756;9.226;2022-12-18T14:15:11;31.50;;;20.33;;
18425;SDS011;9340;48.756;9.226;2022-12-18T14:17:52;40.27;;;22.97;;
18425;SDS011;9340;48.756;9.226;2022-12-18T14:20:21;35.93;;;23.37;;
18425;SDS011;9340;48.756;9.226;2022-12-18T14:22:48;37.97;;;23.47;;
18425;SDS011;9340;48.756;9.226;2022-12-18T14:25:17;37.10;;;23.20;;
18425;SDS011;9340;48.756;9.226;2022-12-18T14:27:47;40.53;;;24.10;;
18425;SDS011;9340;48.756;9.226;2022-12-18T14:30:25;36.20;;;23.23;;
18425;SDS011;9340;48.756;9.226;2022-12-18T14:33:02;37.73;;;23.93;;
18425;SDS011;9340;48.756;9.226;2022-12-18T14:35:31;38.00;;;22.80;;
18425;SDS011;9340;48.756;9.226;2022-12-18T14:38:09;35.83;;;24.03;;
18425;SDS011;9340;48.756;9.226;2022-12-18T14:40:37;38.70;;;22.77;;
18425;SDS011;9340;48.756;9.226;2022-12-18T14:43:04;37.77;;;24.73;;
18425;SDS011;9340;48.756;9.226;2022-12-18T14:45:34;34.33;;;22.27;;
18425;SDS011;9340;48.756;9.226;2022-12-18T14:48:08;37.53;;;24.57;;
18425;SDS011;9340;48.756;9.226;2022-12-18T14:50:38;37.07;;;23.03;;
18425;SDS011;9340;48.756;9.226;2022-12-18T14:53:05;29.87;;;21.50;;
18425;SDS011;9340;48.756;9.226;2022-12-18T14:55:44;39.47;;;23.23;;
18425;SDS011;9340;48.756;9.226;2022-12-18T14:58:13;39.03;;;23.23;;
18425;SDS011;9340;48.756;9.226;2022-12-18T15:00:42;39.03;;;24.23;;
18425;SDS011;9340;48.756;9.226;2022-12-18T15:03:12;37.97;;;23.87;;
18425;SDS011;9340;48.756;9.226;2022-12-18T15:05:43;47.80;;;28.57;;
18425;SDS011;9340;48.756;9.226;2022-12-18T15:08:24;46.40;;;27.00;;
18425;SDS011;9340;48.756;9.226;2022-12-18T15:11:00;47.53;;;29.17;;
18425;SDS011;9340;48.756;9.226;2022-12-18T15:13:27;39.90;;;25.77;;
18425;SDS011;9340;48.756;9.226;2022-12-18T15:15:54;38.07;;;23.60;;
18425;SDS011;9340;48.756;9.226;2022-12-18T15:18:27;132.47;;;65.53;;